Mechita, Argentina
Current Conditions -  °F | °C
As of 12:00 AM on Wednesday 22 Oct 2014 (Local Time) from SAEZ Reporting Station
Clear Clear  
Wind Chill: 75°   Ceiling: Unl
Heat Index: 75°   Visibility: 6mi
Dew Point: 54°   Wind: 12mph
Humidity: 47%   Direction: 10°N
Pressure: 30.03"   Gusts: NA
Location:  35.07°S, 60.4°W
Report Text: SAEZ 220300Z 01010KT 330V040 CAVOK 24/12 Q1017
Loading
Personal Weather Stations






























Interactive Weather Map
Tropical Storm Tracking
New forecast layout! Learn more

10-Day Weather Forecast

Advertisements
Track Severe Weather on mobile